Time;durP1;ratioP1;P1;durP2;ratioP2;P2;SDS_P1;SDS_P2;PMS_P1;PMS_P2;Temp;Humidity;BMP_temperature;BMP_pressure;BME280_temperature;BME280_humidity;BME280_pressure;Samples;Min_cycle;Max_cycle;Signal;HPM_P1;HPM_P2
2023/06/05 05:11:51;;;;;;;;;13.50;12.25;;;;;;;;6370996;22;11364;-73
2023/06/05 05:14:17;;;;;;;;;17.25;14.50;;;;;;;;6375229;22;11352;-76
2023/06/05 05:16:42;;;;;;;;;13.00;11.00;;;;;;;;6375162;22;11393;-79
2023/06/05 05:19:07;;;;;;;;;15.25;14.50;;;;;;;;6375673;22;11419;-75
2023/06/05 05:21:32;;;;;;;;;10.25;10.25;;;;;;;;6376530;22;8763;-85
2023/06/05 05:23:58;;;;;;;;;19.50;12.75;;;;;;;;6384501;22;8752;-75
2023/06/05 05:26:23;;;;;;;;;12.50;11.75;;;;;;;;6375995;22;8736;-73
2023/06/05 05:28:48;;;;;;;;;14.50;12.00;;;;;;;;6376439;22;8767;-73
2023/06/05 05:31:13;;;;;;;;;18.00;14.50;;;;;;;;6376710;22;8744;-74
2023/06/05 05:33:38;;;;;;;;;21.50;17.25;;;;;;;;6376686;22;8748;-73
2023/06/05 05:36:04;;;;;;;;;19.00;13.00;;;;;;;;6375354;22;8828;-73
2023/06/05 05:38:29;;;;;;;;;8.00;7.00;;;;;;;;6376595;22;8759;-72
2023/06/05 05:40:54;;;;;;;;;11.50;11.50;;;;;;;;6376072;22;8772;-72
2023/06/05 05:43:20;;;;;;;;;17.50;14.50;;;;;;;;6376246;22;8867;-74
2023/06/05 05:45:45;;;;;;;;;13.75;11.25;;;;;;;;6376374;22;8752;-76
2023/06/05 05:48:11;;;;;;;;;17.25;15.50;;;;;;;;6347814;22;8784;-74
2023/06/05 05:50:36;;;;;;;;;15.00;15.00;;;;;;;;6376496;22;8743;-75
2023/06/05 05:53:03;;;;;;;;;12.50;11.50;;;;;;;;6376424;22;8748;-75
2023/06/05 05:55:28;;;;;;;;;22.00;14.75;;;;;;;;6375714;22;8728;-77
2023/06/05 05:57:53;;;;;;;;;16.50;14.50;;;;;;;;6375964;22;11483;-76
2023/06/05 06:00:18;;;;;;;;;12.00;11.25;;;;;;;;6375603;22;8818;-76
2023/06/05 06:02:44;;;;;;;;;19.75;16.75;;;;;;;;6376229;22;9594;-77
2023/06/05 06:05:09;;;;;;;;;17.00;17.00;;;;;;;;6376276;22;8836;-79
2023/06/05 06:07:40;;;;;;;;;15.50;14.25;;;;;;;;6376046;22;8740;-78
2023/06/05 06:10:05;;;;;;;;;17.50;15.00;;;;;;;;6375143;22;8724;-75
2023/06/05 06:12:30;;;;;;;;;12.00;12.00;;;;;;;;6375481;22;11443;-75
2023/06/05 06:14:56;;;;;;;;;14.25;13.00;;;;;;;;6375938;22;8763;-75
2023/06/05 06:17:21;;;;;;;;;19.50;18.25;;;;;;;;6376089;22;8927;-76
2023/06/05 06:19:48;;;;;;;;;18.25;13.25;;;;;;;;6376148;22;9501;-76
2023/06/05 06:22:13;;;;;;;;;18.75;14.25;;;;;;;;6376135;22;8858;-78
2023/06/05 06:24:39;;;;;;;;;9.00;8.25;;;;;;;;6374751;22;11458;-79
2023/06/05 06:27:06;;;;;;;;;12.75;11.25;;;;;;;;6346800;22;8739;-78
2023/06/05 06:29:32;;;;;;;;;9.00;7.75;;;;;;;;6376109;22;8805;-91
2023/06/05 06:31:57;;;;;;;;;2.00;1.00;;;;;;;;6377375;22;11417;-80
2023/06/05 06:34:24;;;;;;;;;14.75;12.75;;;;;;;;6375978;22;11325;-80
2023/06/05 06:36:50;;;;;;;;;12.25;12.25;;;;;;;;6375490;22;8728;-80
2023/06/05 06:39:15;;;;;;;;;17.50;15.00;;;;;;;;6346912;22;11396;-79
2023/06/05 06:41:40;;;;;;;;;16.00;13.75;;;;;;;;6375965;22;8860;-79
2023/06/05 06:44:05;;;;;;;;;15.00;15.00;;;;;;;;6376218;22;8739;-79
2023/06/05 06:46:31;;;;;;;;;13.75;12.50;;;;;;;;6347558;22;8760;-79
2023/06/05 06:48:56;;;;;;;;;14.00;14.00;;;;;;;;6376129;22;8759;-79
2023/06/05 06:51:24;;;;;;;;;8.25;8.25;;;;;;;;6376156;22;8744;-79
2023/06/05 06:53:50;;;;;;;;;12.50;12.50;;;;;;;;6347278;22;8755;-78
2023/06/05 06:56:16;;;;;;;;;15.25;12.50;;;;;;;;6375996;22;11298;-77
2023/06/05 06:58:42;;;;;;;;;11.00;9.00;;;;;;;;6375549;22;10016;-79
2023/06/05 07:01:07;;;;;;;;;20.25;14.75;;;;;;;;6375461;22;8748;-78
2023/06/05 07:03:32;;;;;;;;;14.50;13.75;;;;;;;;6375250;22;11367;-78
2023/06/05 07:05:57;;;;;;;;;11.75;10.75;;;;;;;;6375581;22;9547;-78
2023/06/05 07:08:22;;;;;;;;;15.50;14.00;;;;;;;;6375524;22;8787;-78
2023/06/05 07:10:48;;;;;;;;;8.50;8.50;;;;;;;;6375739;22;8740;-79
2023/06/05 07:13:13;;;;;;;;;18.75;17.75;;;;;;;;6375171;22;8803;-78
2023/06/05 07:15:38;;;;;;;;;14.00;13.00;;;;;;;;6375302;22;8736;-79
2023/06/05 07:18:03;;;;;;;;;13.25;13.25;;;;;;;;6376052;22;8752;-79
2023/06/05 07:20:28;;;;;;;;;14.25;12.00;;;;;;;;6375925;22;8768;-79
2023/06/05 07:22:54;;;;;;;;;13.75;12.50;;;;;;;;6375517;22;8822;-79
2023/06/05 07:25:22;;;;;;;;;14.00;12.75;;;;;;;;6375780;22;8743;-79
2023/06/05 07:27:47;;;;;;;;;10.00;10.00;;;;;;;;6375351;22;8736;-79
2023/06/05 07:30:14;;;;;;;;;16.75;14.50;;;;;;;;6375288;22;11389;-79
2023/06/05 07:32:40;;;;;;;;;12.50;11.75;;;;;;;;6375550;22;8751;-79
2023/06/05 07:35:06;;;;;;;;;13.50;12.50;;;;;;;;6375361;22;11313;-79
2023/06/05 07:37:31;;;;;;;;;15.25;11.50;;;;;;;;6347151;22;11477;-79
2023/06/05 07:39:57;;;;;;;;;17.00;13.75;;;;;;;;6375644;22;11506;-78
2023/06/05 07:42:22;;;;;;;;;16.00;14.00;;;;;;;;6375595;22;8845;-78
2023/06/05 07:44:48;;;;;;;;;14.50;12.50;;;;;;;;6375837;22;9561;-78
2023/06/05 07:47:13;;;;;;;;;12.75;12.00;;;;;;;;6375788;22;8843;-78
2023/06/05 07:49:38;;;;;;;;;13.75;13.75;;;;;;;;6375917;22;8736;-79
2023/06/05 07:52:03;;;;;;;;;11.00;10.50;;;;;;;;6376012;22;8728;-79
2023/06/05 07:54:29;;;;;;;;;10.00;9.50;;;;;;;;6375681;22;8901;-79
2023/06/05 07:56:57;;;;;;;;;13.25;12.25;;;;;;;;6375449;22;8829;-79
2023/06/05 07:59:24;;;;;;;;;9.25;9.25;;;;;;;;6375382;22;8732;-77
2023/06/05 08:01:50;;;;;;;;;14.25;11.50;;;;;;;;6375580;22;12150;-79
2023/06/05 08:04:17;;;;;;;;;11.25;11.25;;;;;;;;6375402;22;11488;-78
2023/06/05 08:06:42;;;;;;;;;9.00;9.00;;;;;;;;6375043;22;11317;-79
2023/06/05 08:09:09;;;;;;;;;11.00;11.00;;;;;;;;6375487;22;11325;-76
2023/06/05 08:11:34;;;;;;;;;7.00;6.75;;;;;;;;6375495;22;8728;-76
2023/06/05 08:13:59;;;;;;;;;9.25;9.25;;;;;;;;6375149;22;11374;-77
2023/06/05 08:16:24;;;;;;;;;12.00;11.25;;;;;;;;6375382;22;8779;-77
2023/06/05 08:18:50;;;;;;;;;15.00;12.00;;;;;;;;6347250;22;8794;-78
2023/06/05 08:21:15;;;;;;;;;11.00;11.00;;;;;;;;6347352;22;8756;-79
2023/06/05 08:23:41;;;;;;;;;13.00;9.50;;;;;;;;6375645;22;9504;-77
2023/06/05 08:26:10;;;;;;;;;8.00;8.00;;;;;;;;6375233;22;8744;-76
2023/06/05 08:28:37;;;;;;;;;16.00;13.75;;;;;;;;6347112;22;9569;-80
2023/06/05 08:31:02;;;;;;;;;9.00;9.00;;;;;;;;6375482;22;11532;-76
2023/06/05 08:33:28;;;;;;;;;11.00;11.00;;;;;;;;6375884;22;11526;-77
2023/06/05 08:35:53;;;;;;;;;24.00;13.75;;;;;;;;6375646;22;8778;-75
2023/06/05 08:38:18;;;;;;;;;12.00;12.00;;;;;;;;6375505;22;8833;-76
2023/06/05 08:40:43;;;;;;;;;9.75;9.25;;;;;;;;6375421;22;8783;-75
2023/06/05 08:43:08;;;;;;;;;15.25;11.00;;;;;;;;6375083;22;8771;-76
2023/06/05 08:45:34;;;;;;;;;10.25;9.75;;;;;;;;6320988;22;9785;-76
2023/06/05 08:48:01;;;;;;;;;17.25;16.00;;;;;;;;6375403;22;8764;-74
2023/06/05 08:50:27;;;;;;;;;23.75;19.75;;;;;;;;6346694;22;8759;-73
2023/06/05 08:52:55;;;;;;;;;13.75;10.00;;;;;;;;6375304;22;11365;-74
2023/06/05 08:55:21;;;;;;;;;10.75;9.25;;;;;;;;6374792;22;11340;-73
2023/06/05 08:57:47;;;;;;;;;16.25;13.50;;;;;;;;6374502;22;11187;-75
2023/06/05 09:00:14;;;;;;;;;14.25;13.00;;;;;;;;6374657;22;11365;-77
2023/06/05 09:02:46;;;;;;;;;10.00;10.00;;;;;;;;6374456;22;11455;-76
2023/06/05 09:05:12;;;;;;;;;10.50;10.00;;;;;;;;6373960;22;12090;-73
2023/06/05 09:07:37;;;;;;;;;10.75;10.75;;;;;;;;6374339;22;11434;-73
2023/06/05 09:10:03;;;;;;;;;11.00;10.25;;;;;;;;6375337;22;8879;-73
2023/06/05 09:12:28;;;;;;;;;13.50;11.00;;;;;;;;6340300;22;8773;-72
2023/06/05 09:14:53;;;;;;;;;10.50;10.50;;;;;;;;6342881;22;9470;-75
2023/06/05 09:17:21;;;;;;;;;11.00;9.25;;;;;;;;6343346;22;8791;-84
2023/06/05 09:19:47;;;;;;;;;8.25;8.00;;;;;;;;6343049;22;8748;-73
2023/06/05 09:22:13;;;;;;;;;12.25;11.25;;;;;;;;6342577;22;10976;-74
2023/06/05 09:24:40;;;;;;;;;11.50;9.00;;;;;;;;6343266;22;9630;-74
2023/06/05 09:27:08;;;;;;;;;11.75;10.75;;;;;;;;6342876;22;8717;-75
2023/06/05 09:29:37;;;;;;;;;12.25;12.25;;;;;;;;6342912;22;10986;-74
2023/06/05 09:32:04;;;;;;;;;11.25;8.50;;;;;;;;6342566;22;11097;-75
2023/06/05 09:34:29;;;;;;;;;13.50;11.00;;;;;;;;6342424;22;11786;-73
2023/06/05 09:36:57;;;;;;;;;11.50;11.50;;;;;;;;6342576;22;11033;-74
2023/06/05 09:39:24;;;;;;;;;9.00;9.00;;;;;;;;6343020;22;8741;-75
2023/06/05 09:41:51;;;;;;;;;12.00;10.25;;;;;;;;6342313;22;10869;-75
2023/06/05 09:44:16;;;;;;;;;6.50;6.50;;;;;;;;6342680;22;11161;-75
2023/06/05 09:46:49;;;;;;;;;10.00;9.00;;;;;;;;6342786;22;10957;-74
2023/06/05 09:49:15;;;;;;;;;12.50;11.25;;;;;;;;6342756;22;8718;-76
2023/06/05 09:51:42;;;;;;;;;10.75;7.50;;;;;;;;6344223;22;11094;-75
2023/06/05 09:54:08;;;;;;;;;15.00;10.50;;;;;;;;6344015;22;8760;-75
2023/06/05 09:56:34;;;;;;;;;12.50;9.25;;;;;;;;6343968;22;11836;-75
2023/06/05 09:59:00;;;;;;;;;9.25;8.00;;;;;;;;6344189;22;8752;-75
2023/06/05 10:01:28;;;;;;;;;3.00;2.50;;;;;;;;6340883;22;11523;-74
2023/06/05 10:03:53;;;;;;;;;9.75;9.75;;;;;;;;6343635;22;8845;-75
2023/06/05 10:06:23;;;;;;;;;8.00;6.00;;;;;;;;6343465;22;11137;-75
2023/06/05 10:08:49;;;;;;;;;12.75;11.25;;;;;;;;6342715;22;8764;-75
2023/06/05 10:11:16;;;;;;;;;9.50;7.50;;;;;;;;6344604;22;11055;-74
2023/06/05 10:13:41;;;;;;;;;12.00;9.75;;;;;;;;6368453;22;8783;-74
2023/06/05 10:16:07;;;;;;;;;8.25;7.50;;;;;;;;6376069;22;10892;-75
2023/06/05 10:18:32;;;;;;;;;8.25;8.00;;;;;;;;6376013;22;8732;-75
2023/06/05 10:20:58;;;;;;;;;9.00;9.00;;;;;;;;6376200;22;8796;-75
2023/06/05 10:23:24;;;;;;;;;10.75;10.75;;;;;;;;6376275;22;8748;-75
2023/06/05 10:25:50;;;;;;;;;8.75;8.75;;;;;;;;6347669;22;8752;-75
2023/06/05 10:28:24;;;;;;;;;9.75;8.75;;;;;;;;6375602;22;11276;-74
2023/06/05 10:30:59;;;;;;;;;8.00;7.00;;;;;;;;6375923;22;8793;-75
2023/06/05 10:33:31;;;;;;;;;9.00;9.00;;;;;;;;6376025;22;10955;-74
2023/06/05 10:36:03;;;;;;;;;7.00;7.00;;;;;;;;6375811;22;10984;-74
2023/06/05 10:38:30;;;;;;;;;9.00;8.75;;;;;;;;6375801;22;10887;-74
2023/06/05 10:40:57;;;;;;;;;11.75;9.25;;;;;;;;6375920;22;11047;-73
2023/06/05 10:43:26;;;;;;;;;6.75;5.75;;;;;;;;6375957;22;11103;-74
2023/06/05 10:45:52;;;;;;;;;11.25;9.75;;;;;;;;6375622;22;10844;-74
2023/06/05 10:48:17;;;;;;;;;12.00;8.00;;;;;;;;6376135;22;10999;-74
2023/06/05 10:50:43;;;;;;;;;13.00;12.00;;;;;;;;6376132;22;9517;-72
2023/06/05 10:53:28;;;;;;;;;9.25;9.25;;;;;;;;6376087;22;8782;-72
2023/06/05 10:55:53;;;;;;;;;8.25;7.25;;;;;;;;6375050;22;8728;-72
2023/06/05 10:58:22;;;;;;;;;12.25;10.25;;;;;;;;6375520;22;11597;-72
2023/06/05 11:01:06;;;;;;;;;9.25;9.25;;;;;;;;6375545;22;8744;-72
2023/06/05 11:03:52;;;;;;;;;12.00;9.50;;;;;;;;6374910;22;11259;-72
2023/06/05 11:06:17;;;;;;;;;10.00;10.00;;;;;;;;6374721;22;11132;-72
2023/06/05 11:08:42;;;;;;;;;10.75;10.50;;;;;;;;6375916;22;11083;-73
2023/06/05 11:11:09;;;;;;;;;16.50;13.50;;;;;;;;6375796;22;8866;-73
2023/06/05 11:13:54;;;;;;;;;13.50;11.50;;;;;;;;6374905;22;8778;-72
2023/06/05 11:16:26;;;;;;;;;9.00;9.00;;;;;;;;6375375;22;11094;-72
2023/06/05 11:18:53;;;;;;;;;9.75;9.75;;;;;;;;6375972;22;11059;-73
2023/06/05 11:21:18;;;;;;;;;12.00;9.00;;;;;;;;6375383;22;11173;-72
2023/06/05 11:24:03;;;;;;;;;11.20;8.40;;;;;;;;6376357;22;11184;-73
2023/06/05 11:26:39;;;;;;;;;11.50;9.75;;;;;;;;6375356;22;8728;-73
2023/06/05 11:29:09;;;;;;;;;11.25;10.00;;;;;;;;6346958;22;11352;-73
2023/06/05 11:31:34;;;;;;;;;13.75;9.50;;;;;;;;6375664;22;11030;-72
2023/06/05 11:34:00;;;;;;;;;10.50;10.50;;;;;;;;6375632;22;11381;-73
2023/06/05 11:36:25;;;;;;;;;9.25;8.00;;;;;;;;6375944;22;8838;-73
2023/06/05 11:38:55;;;;;;;;;5.00;5.00;;;;;;;;6376035;22;8748;-73
2023/06/05 11:41:21;;;;;;;;;3.75;3.75;;;;;;;;6375378;22;9191;-72
2023/06/05 11:43:46;;;;;;;;;10.75;7.00;;;;;;;;6375684;22;11453;-72
2023/06/05 11:46:11;;;;;;;;;7.25;5.00;;;;;;;;6375513;22;8751;-73
2023/06/05 11:48:42;;;;;;;;;7.75;6.75;;;;;;;;6376050;22;8816;-73
2023/06/05 11:51:07;;;;;;;;;7.00;7.00;;;;;;;;6375975;22;8716;-73
2023/06/05 11:53:33;;;;;;;;;11.00;8.25;;;;;;;;6375990;22;11030;-72
2023/06/05 11:58:30;;;;;;;;;9.00;9.00;;;;;;;;6375731;22;8740;-73
2023/06/05 12:01:17;;;;;;;;;11.50;9.00;;;;;;;;6375582;22;11050;-72
2023/06/05 12:03:43;;;;;;;;;8.50;8.25;;;;;;;;6375512;22;11025;-72
2023/06/05 12:06:08;;;;;;;;;7.50;7.50;;;;;;;;6375628;22;10990;-73
2023/06/05 12:08:34;;;;;;;;;9.00;8.25;;;;;;;;6347124;22;9360;-73
2023/06/05 12:11:00;;;;;;;;;14.25;11.50;;;;;;;;6375321;22;8709;-72
2023/06/05 12:13:44;;;;;;;;;4.00;4.00;;;;;;;;6374347;22;11209;-72
2023/06/05 12:16:10;;;;;;;;;6.75;5.75;;;;;;;;6375915;22;8732;-73
2023/06/05 12:18:35;;;;;;;;;7.75;7.75;;;;;;;;6375658;22;11783;-74
2023/06/05 12:21:01;;;;;;;;;8.00;8.00;;;;;;;;6375721;22;8776;-73
2023/06/05 12:23:28;;;;;;;;;13.25;10.25;;;;;;;;6375377;22;8736;-73
2023/06/05 12:25:59;;;;;;;;;7.25;7.25;;;;;;;;6375650;22;11013;-73
2023/06/05 12:28:26;;;;;;;;;7.75;7.75;;;;;;;;6375238;22;10951;-73
2023/06/05 12:30:51;;;;;;;;;7.75;6.75;;;;;;;;6375313;22;10767;-73
2023/06/05 12:33:17;;;;;;;;;5.50;5.50;;;;;;;;6375509;22;10854;-73
2023/06/05 12:35:42;;;;;;;;;12.00;8.50;;;;;;;;6375301;22;8794;-73
2023/06/05 12:38:08;;;;;;;;;7.75;7.50;;;;;;;;6375254;22;8740;-73
2023/06/05 12:40:33;;;;;;;;;8.25;8.25;;;;;;;;6375185;22;8795;-73
2023/06/05 12:42:58;;;;;;;;;10.75;9.75;;;;;;;;6346672;22;8846;-73
2023/06/05 12:45:23;;;;;;;;;6.50;6.50;;;;;;;;6375555;22;8764;-73
2023/06/05 12:47:48;;;;;;;;;9.75;9.00;;;;;;;;6375603;22;8854;-73
2023/06/05 12:50:15;;;;;;;;;8.00;8.00;;;;;;;;6374995;22;8801;-73
2023/06/05 12:52:41;;;;;;;;;9.00;8.25;;;;;;;;6375408;22;8738;-73
2023/06/05 12:55:07;;;;;;;;;8.00;8.00;;;;;;;;6375211;22;11408;-73
2023/06/05 12:57:32;;;;;;;;;12.75;9.50;;;;;;;;6375218;22;8756;-74
2023/06/05 12:59:57;;;;;;;;;10.25;7.50;;;;;;;;6375173;22;8774;-73
2023/06/05 13:02:23;;;;;;;;;7.75;7.50;;;;;;;;6375347;22;8794;-73
2023/06/05 13:04:49;;;;;;;;;9.50;8.25;;;;;;;;6374925;22;9179;-73
2023/06/05 13:07:14;;;;;;;;;6.75;5.25;;;;;;;;6375450;22;8862;-75
2023/06/05 13:09:39;;;;;;;;;6.50;6.50;;;;;;;;6375384;22;9703;-73
2023/06/05 13:12:05;;;;;;;;;5.50;5.50;;;;;;;;6371086;22;8748;-73
2023/06/05 13:14:30;;;;;;;;;6.00;6.00;;;;;;;;6374602;22;8776;-74
2023/06/05 13:16:56;;;;;;;;;7.50;6.50;;;;;;;;6374684;22;8740;-73
2023/06/05 13:19:21;;;;;;;;;5.50;4.50;;;;;;;;6374934;22;9512;-73
2023/06/05 13:21:46;;;;;;;;;8.25;8.25;;;;;;;;6374749;22;8780;-73
2023/06/05 13:24:11;;;;;;;;;8.75;8.25;;;;;;;;6374963;22;8760;-73
2023/06/05 13:26:37;;;;;;;;;4.50;4.50;;;;;;;;6375019;22;8848;-73
2023/06/05 13:29:02;;;;;;;;;10.50;8.50;;;;;;;;6375891;22;9215;-72
2023/06/05 13:31:28;;;;;;;;;13.00;8.25;;;;;;;;6376406;22;8768;-72
2023/06/05 13:33:53;;;;;;;;;6.00;6.00;;;;;;;;6376183;22;8873;-74
2023/06/05 13:36:18;;;;;;;;;13.50;10.50;;;;;;;;6376130;22;10783;-74
2023/06/05 13:38:44;;;;;;;;;9.50;9.50;;;;;;;;6376460;22;8744;-73
2023/06/05 13:41:09;;;;;;;;;7.00;7.00;;;;;;;;6375731;22;8760;-73
2023/06/05 13:43:34;;;;;;;;;8.75;6.75;;;;;;;;6376331;22;8866;-73
2023/06/05 13:46:00;;;;;;;;;7.75;7.00;;;;;;;;6376249;22;8833;-73
2023/06/05 13:48:25;;;;;;;;;8.25;7.25;;;;;;;;6376183;22;8791;-74
2023/06/05 13:50:51;;;;;;;;;7.75;6.50;;;;;;;;6376099;22;8837;-73
2023/06/05 13:53:16;;;;;;;;;7.00;7.00;;;;;;;;6376298;22;8748;-72
2023/06/05 13:55:41;;;;;;;;;11.00;9.00;;;;;;;;6375437;22;8743;-75
2023/06/05 13:58:07;;;;;;;;;9.00;8.00;;;;;;;;6375515;22;8739;-76
2023/06/05 14:00:32;;;;;;;;;7.00;6.50;;;;;;;;6375339;22;8767;-75
2023/06/05 14:02:58;;;;;;;;;4.00;4.00;;;;;;;;6375470;22;8744;-76
2023/06/05 14:05:23;;;;;;;;;8.00;7.00;;;;;;;;6375526;22;9932;-74
2023/06/05 14:07:49;;;;;;;;;7.50;7.50;;;;;;;;6374967;22;8910;-74
2023/06/05 14:10:15;;;;;;;;;8.00;8.00;;;;;;;;6374523;22;8767;-72
2023/06/05 14:12:40;;;;;;;;;7.75;7.25;;;;;;;;6374471;22;8794;-72
2023/06/05 14:15:05;;;;;;;;;7.25;7.25;;;;;;;;6347947;22;8752;-73
2023/06/05 14:17:30;;;;;;;;;11.75;8.75;;;;;;;;6373647;22;8764;-73
2023/06/05 14:19:56;;;;;;;;;16.75;10.50;;;;;;;;6375719;22;8767;-73
2023/06/05 14:22:21;;;;;;;;;9.00;8.75;;;;;;;;6375979;22;8756;-73
2023/06/05 14:24:46;;;;;;;;;9.00;8.00;;;;;;;;6375107;22;8752;-73
2023/06/05 14:27:13;;;;;;;;;9.75;9.75;;;;;;;;6375817;22;8860;-73
2023/06/05 14:29:38;;;;;;;;;6.50;5.75;;;;;;;;6375745;22;8813;-74
2023/06/05 14:32:03;;;;;;;;;6.75;6.75;;;;;;;;6347128;22;10676;-73
2023/06/05 14:34:29;;;;;;;;;4.50;4.50;;;;;;;;6375592;22;8759;-74
2023/06/05 14:36:54;;;;;;;;;7.75;7.75;;;;;;;;6375576;22;8747;-74
2023/06/05 14:39:20;;;;;;;;;7.50;7.50;;;;;;;;6375795;22;8767;-75
2023/06/05 14:41:45;;;;;;;;;7.25;6.00;;;;;;;;6375354;22;9505;-74
2023/06/05 14:44:11;;;;;;;;;10.00;8.00;;;;;;;;6375425;22;10884;-73
2023/06/05 14:46:36;;;;;;;;;8.25;7.25;;;;;;;;6376151;22;8872;-74
2023/06/05 14:49:01;;;;;;;;;5.00;5.00;;;;;;;;6375821;22;9531;-76
2023/06/05 14:51:26;;;;;;;;;7.00;7.00;;;;;;;;6375880;22;8752;-73
2023/06/05 14:53:52;;;;;;;;;7.00;7.00;;;;;;;;6376253;22;8756;-75
2023/06/05 14:56:17;;;;;;;;;7.75;6.75;;;;;;;;6376154;22;9461;-76
2023/06/05 14:58:42;;;;;;;;;8.50;8.50;;;;;;;;6376076;22;8760;-75
2023/06/05 15:01:07;;;;;;;;;8.50;7.75;;;;;;;;6375456;22;8790;-75
2023/06/05 15:03:32;;;;;;;;;6.75;6.25;;;;;;;;6374600;22;9478;-74
2023/06/05 15:05:58;;;;;;;;;8.00;8.00;;;;;;;;6375275;22;8771;-75
2023/06/05 15:08:23;;;;;;;;;7.25;7.25;;;;;;;;6375378;22;8771;-74
2023/06/05 15:10:49;;;;;;;;;5.75;5.75;;;;;;;;6346632;22;8763;-72
2023/06/05 15:13:14;;;;;;;;;8.25;6.50;;;;;;;;6374821;22;8764;-74
2023/06/05 15:15:39;;;;;;;;;7.25;5.75;;;;;;;;6375103;22;8862;-73
2023/06/05 15:18:05;;;;;;;;;5.25;5.25;;;;;;;;6375129;22;8752;-76
2023/06/05 15:20:30;;;;;;;;;3.00;3.00;;;;;;;;6375359;22;8763;-76
2023/06/05 15:22:55;;;;;;;;;8.25;8.25;;;;;;;;6375711;22;8748;-75
2023/06/05 15:25:23;;;;;;;;;8.00;7.50;;;;;;;;6375751;22;8874;-73
2023/06/05 15:27:48;;;;;;;;;8.75;7.75;;;;;;;;6347777;22;9839;-73
2023/06/05 15:30:14;;;;;;;;;4.25;3.00;;;;;;;;6375784;22;10771;-73
2023/06/05 15:32:39;;;;;;;;;9.00;7.75;;;;;;;;6347314;22;8763;-73
2023/06/05 15:35:04;;;;;;;;;8.25;8.25;;;;;;;;6375665;22;8760;-74
2023/06/05 15:37:29;;;;;;;;;8.50;8.00;;;;;;;;6375714;22;8751;-73
2023/06/05 15:39:55;;;;;;;;;6.75;6.75;;;;;;;;6375486;22;8771;-73
2023/06/05 15:42:27;;;;;;;;;9.00;8.00;;;;;;;;6375400;22;8744;-74
2023/06/05 15:44:53;;;;;;;;;5.50;5.50;;;;;;;;6376239;22;8732;-73
2023/06/05 15:47:18;;;;;;;;;5.00;5.00;;;;;;;;6374995;22;10725;-73
2023/06/05 15:49:45;;;;;;;;;6.75;6.75;;;;;;;;6374844;22;8820;-74
2023/06/05 15:52:10;;;;;;;;;8.00;7.75;;;;;;;;6375227;22;8732;-73
2023/06/05 15:54:35;;;;;;;;;5.50;5.50;;;;;;;;6375196;22;10829;-72
2023/06/05 15:57:06;;;;;;;;;9.00;5.75;;;;;;;;6375885;22;8744;-72
2023/06/05 15:59:31;;;;;;;;;7.25;6.00;;;;;;;;6375722;22;8728;-72
2023/06/05 16:01:57;;;;;;;;;7.00;7.00;;;;;;;;6375273;22;10724;-72
2023/06/05 16:04:22;;;;;;;;;5.75;5.75;;;;;;;;6375844;22;8752;-72
2023/06/05 16:06:47;;;;;;;;;5.25;5.25;;;;;;;;6375915;22;8748;-73
2023/06/05 16:09:12;;;;;;;;;6.75;6.75;;;;;;;;6375651;22;8756;-71
2023/06/05 16:11:37;;;;;;;;;5.00;5.00;;;;;;;;6375765;22;8770;-71
2023/06/05 16:14:02;;;;;;;;;5.00;5.00;;;;;;;;6375833;22;8847;-69
2023/06/05 16:16:28;;;;;;;;;4.50;4.50;;;;;;;;6375417;22;8748;-71
2023/06/05 16:18:53;;;;;;;;;8.25;7.75;;;;;;;;6375367;22;8779;-71
2023/06/05 16:21:18;;;;;;;;;4.50;4.50;;;;;;;;6375799;22;8842;-72
2023/06/05 16:23:43;;;;;;;;;2.50;2.50;;;;;;;;6375831;22;8772;-69
2023/06/05 16:26:08;;;;;;;;;5.50;5.00;;;;;;;;6375796;22;8740;-73
2023/06/05 16:28:34;;;;;;;;;4.75;4.75;;;;;;;;6375903;22;8768;-69
2023/06/05 16:30:59;;;;;;;;;7.00;7.00;;;;;;;;6375564;22;8771;-72
2023/06/05 16:33:24;;;;;;;;;8.50;6.25;;;;;;;;6375135;22;8894;-71
2023/06/05 16:35:50;;;;;;;;;5.00;5.00;;;;;;;;6375990;22;8740;-70
2023/06/05 16:38:16;;;;;;;;;8.75;6.25;;;;;;;;6375735;22;8781;-72
2023/06/05 16:40:41;;;;;;;;;4.00;3.75;;;;;;;;6375448;22;8779;-70
2023/06/05 16:43:06;;;;;;;;;7.75;7.75;;;;;;;;6375822;22;10516;-73
2023/06/05 16:45:36;;;;;;;;;6.75;6.50;;;;;;;;6375333;22;8871;-72
2023/06/05 16:48:01;;;;;;;;;5.75;5.75;;;;;;;;6375132;22;8736;-73
2023/06/05 16:50:26;;;;;;;;;6.75;6.75;;;;;;;;6347073;22;10779;-72
2023/06/05 16:52:51;;;;;;;;;6.75;6.00;;;;;;;;6375677;22;8790;-70
2023/06/05 16:55:17;;;;;;;;;6.50;6.50;;;;;;;;6374510;22;9199;-70
2023/06/05 16:57:43;;;;;;;;;8.50;6.75;;;;;;;;6375456;22;8783;-71
2023/06/05 17:00:09;;;;;;;;;5.75;5.00;;;;;;;;6374311;22;8736;-72
2023/06/05 17:02:35;;;;;;;;;7.50;5.75;;;;;;;;6375085;22;11090;-71
2023/06/05 17:05:00;;;;;;;;;6.75;6.50;;;;;;;;6375525;22;8845;-72
2023/06/05 17:07:25;;;;;;;;;6.00;5.25;;;;;;;;6375040;22;8794;-70
2023/06/05 17:09:51;;;;;;;;;5.50;5.00;;;;;;;;6374992;22;8771;-76
2023/06/05 17:12:16;;;;;;;;;6.25;5.00;;;;;;;;6374724;22;8805;-78
2023/06/05 17:14:42;;;;;;;;;5.75;5.75;;;;;;;;6375302;22;10569;-77
2023/06/05 17:17:07;;;;;;;;;4.25;4.25;;;;;;;;6346467;22;9212;-75
2023/06/05 17:19:32;;;;;;;;;10.25;7.75;;;;;;;;6374980;22;8839;-76
2023/06/05 17:21:57;;;;;;;;;4.75;4.75;;;;;;;;6375093;22;8751;-76
2023/06/05 17:24:24;;;;;;;;;6.00;6.00;;;;;;;;6344526;22;9169;-74
2023/06/05 17:26:49;;;;;;;;;10.50;7.50;;;;;;;;6375204;22;8751;-76
2023/06/05 17:29:15;;;;;;;;;6.00;6.00;;;;;;;;6375296;22;10627;-75
2023/06/05 17:31:40;;;;;;;;;7.75;7.75;;;;;;;;6346212;22;8772;-74
2023/06/05 17:34:05;;;;;;;;;8.00;7.25;;;;;;;;6374990;22;8752;-83
2023/06/05 17:36:31;;;;;;;;;8.00;8.00;;;;;;;;6374466;22;8764;-75
2023/06/05 17:38:56;;;;;;;;;6.75;6.75;;;;;;;;6374626;22;8752;-76
2023/06/05 17:41:21;;;;;;;;;10.00;10.00;;;;;;;;6374219;22;8876;-78
2023/06/05 17:43:49;;;;;;;;;10.25;8.75;;;;;;;;6375110;22;8788;-71
2023/06/05 17:46:14;;;;;;;;;8.50;7.00;;;;;;;;6374353;22;8751;-73
2023/06/05 17:48:40;;;;;;;;;7.25;7.25;;;;;;;;6374670;22;10812;-72
2023/06/05 17:51:05;;;;;;;;;4.50;3.50;;;;;;;;6375869;22;8767;-81
2023/06/05 17:53:30;;;;;;;;;7.75;7.00;;;;;;;;6375558;22;8917;-76
2023/06/05 17:55:56;;;;;;;;;7.50;7.50;;;;;;;;6374941;22;8744;-76
2023/06/05 17:58:21;;;;;;;;;9.75;8.00;;;;;;;;6374411;22;8743;-73
2023/06/05 18:00:47;;;;;;;;;6.75;6.00;;;;;;;;6374528;22;8764;-74
2023/06/05 18:03:12;;;;;;;;;7.25;4.25;;;;;;;;6375043;22;8768;-71
2023/06/05 18:05:37;;;;;;;;;7.00;7.00;;;;;;;;6375022;22;8736;-76
2023/06/05 18:08:02;;;;;;;;;8.50;7.75;;;;;;;;6374856;22;8759;-76
2023/06/05 18:10:27;;;;;;;;;6.25;6.25;;;;;;;;6374503;22;8771;-77
2023/06/05 18:12:53;;;;;;;;;6.25;5.25;;;;;;;;6375364;22;8776;-73
2023/06/05 18:15:18;;;;;;;;;5.25;5.25;;;;;;;;6376097;22;8751;-74
2023/06/05 18:17:43;;;;;;;;;5.00;5.00;;;;;;;;6378401;22;8751;-76
2023/06/05 18:20:08;;;;;;;;;7.00;7.00;;;;;;;;6383486;22;8891;-81
2023/06/05 18:22:34;;;;;;;;;7.25;7.25;;;;;;;;6378224;22;8763;-77
2023/06/05 18:25:00;;;;;;;;;7.00;6.50;;;;;;;;6358655;22;8801;-81
2023/06/05 18:27:25;;;;;;;;;6.25;6.25;;;;;;;;6350383;22;8869;-76
2023/06/05 18:29:50;;;;;;;;;8.50;8.50;;;;;;;;6344589;22;8861;-77
2023/06/05 18:32:15;;;;;;;;;7.75;6.75;;;;;;;;6345030;22;8766;-74
2023/06/05 18:34:40;;;;;;;;;7.25;7.25;;;;;;;;6344680;22;8749;-75
2023/06/05 18:37:06;;;;;;;;;7.25;7.25;;;;;;;;6317312;22;8750;-76
2023/06/05 18:39:32;;;;;;;;;5.25;5.25;;;;;;;;6344883;22;8766;-75
2023/06/05 18:41:57;;;;;;;;;7.75;7.00;;;;;;;;6345183;22;8894;-75
2023/06/05 18:44:22;;;;;;;;;5.00;5.00;;;;;;;;6344345;22;11406;-76
2023/06/05 18:46:48;;;;;;;;;5.00;5.00;;;;;;;;6347369;22;9498;-73
2023/06/05 18:49:13;;;;;;;;;7.50;6.75;;;;;;;;6344590;22;8750;-72
2023/06/05 18:51:41;;;;;;;;;7.00;7.00;;;;;;;;6344281;22;8790;-80
2023/06/05 18:54:06;;;;;;;;;6.50;6.50;;;;;;;;6345131;22;8799;-75
2023/06/05 18:56:31;;;;;;;;;8.50;7.00;;;;;;;;6344502;22;10881;-77
2023/06/05 18:58:56;;;;;;;;;6.25;6.25;;;;;;;;6316431;22;9483;-76
2023/06/05 19:01:22;;;;;;;;;10.25;8.00;;;;;;;;6344572;22;8969;-75
2023/06/05 19:03:47;;;;;;;;;8.75;7.25;;;;;;;;6344686;22;8762;-78
2023/06/05 19:06:12;;;;;;;;;7.00;7.00;;;;;;;;6344222;22;8843;-74
2023/06/05 19:08:39;;;;;;;;;6.50;4.25;;;;;;;;6344036;22;8769;-74
2023/06/05 19:11:04;;;;;;;;;3.00;3.00;;;;;;;;6344460;22;8738;-73
2023/06/05 19:13:29;;;;;;;;;8.00;7.50;;;;;;;;6344082;22;10667;-74
2023/06/05 19:15:55;;;;;;;;;5.00;4.00;;;;;;;;6344023;22;8754;-76
2023/06/05 19:18:20;;;;;;;;;9.25;9.00;;;;;;;;6344088;22;8840;-75
2023/06/05 19:20:45;;;;;;;;;5.25;5.25;;;;;;;;6343975;22;8774;-85
2023/06/05 19:23:10;;;;;;;;;6.75;6.75;;;;;;;;6344204;22;8786;-74
2023/06/05 19:25:35;;;;;;;;;6.25;6.25;;;;;;;;6315577;22;8800;-71
2023/06/05 19:28:01;;;;;;;;;7.50;7.50;;;;;;;;6346517;22;8868;-80
2023/06/05 19:30:26;;;;;;;;;9.50;8.25;;;;;;;;6347912;22;8863;-84
2023/06/05 19:32:51;;;;;;;;;6.50;6.50;;;;;;;;6345844;22;8796;-84
2023/06/05 19:35:18;;;;;;;;;5.50;5.50;;;;;;;;6345441;22;8742;-83
2023/06/05 19:37:45;;;;;;;;;6.50;6.50;;;;;;;;6344560;22;8808;-81
2023/06/05 19:40:10;;;;;;;;;6.75;6.75;;;;;;;;6343970;22;10702;-77
2023/06/05 19:42:35;;;;;;;;;5.00;5.00;;;;;;;;6316087;22;10846;-78
2023/06/05 19:45:01;;;;;;;;;5.75;5.75;;;;;;;;6344883;22;8866;-78
2023/06/05 19:47:26;;;;;;;;;3.25;2.25;;;;;;;;6344516;22;8780;-78
2023/06/05 19:49:51;;;;;;;;;7.00;6.00;;;;;;;;6344273;22;8765;-75